Time;durP1;ratioP1;P1;durP2;ratioP2;P2;SDS_P1;SDS_P2;PMS_P1;PMS_P2;Temp;Humidity;BMP_temperature;BMP_pressure;BME280_temperature;BME280_humidity;BME280_pressure;Samples;Min_cycle;Max_cycle;Signal;HPM_P1;HPM_P2
2022/05/28 00:00:00;;;;;;;;;12.25;10.50;;;27.81;97249.59;;;;117357;1191;25660;-52
2022/05/28 00:02:55;;;;;;;;;10.00;9.25;;;27.91;97251.63;;;;117396;1191;25750;-55
2022/05/28 00:05:23;;;;;;;;;13.00;12.00;;;27.91;97258.81;;;;117395;1190;24784;-51
2022/05/28 00:07:54;;;;;;;;;8.75;8.75;;;27.88;97259.18;;;;117355;1191;25506;-55
2022/05/28 00:10:25;;;;;;;;;11.00;10.50;;;27.82;97255.50;;;;117350;1191;25263;-53
2022/05/28 00:12:54;;;;;;;;;13.00;12.25;;;27.79;97256.89;;;;117423;1189;25366;-57
2022/05/28 00:15:36;;;;;;;;;13.25;12.50;;;27.82;97257.79;;;;117390;1191;25271;-55
2022/05/28 00:18:09;;;;;;;;;10.00;8.00;;;27.83;97265.97;;;;117391;1190;25181;-52
2022/05/28 00:20:40;;;;;;;;;9.75;9.75;;;27.80;97287.63;;;;117372;1189;24755;-55
2022/05/28 00:23:13;;;;;;;;;5.33;4.67;;;27.77;97298.23;;;;117352;1190;25891;-54
2022/05/28 00:25:43;;;;;;;;;12.50;10.75;;;27.76;97294.07;;;;117389;1191;25818;-52
2022/05/28 00:28:12;;;;;;;;;12.50;9.50;;;27.75;97299.24;;;;117351;1190;25584;-51
2022/05/28 00:30:41;;;;;;;;;13.00;10.00;;;27.73;97296.00;;;;117349;1189;24820;-52
2022/05/28 00:33:13;;;;;;;;;10.67;10.00;;;27.70;97291.77;;;;117379;1189;25716;-52
2022/05/28 00:35:44;;;;;;;;;9.25;7.75;;;27.69;97296.32;;;;117351;1191;24754;-53
2022/05/28 00:38:18;;;;;;;;;8.50;8.50;;;27.68;97303.20;;;;117373;1191;25120;-51
2022/05/28 00:40:58;;;;;;;;;13.33;9.33;;;27.69;97300.66;;;;117360;1191;24926;-59
2022/05/28 00:43:33;;;;;;;;;11.75;10.00;;;27.69;97291.23;;;;117367;1191;24889;-54
2022/05/28 00:46:09;;;;;;;;;11.67;9.33;;;27.65;97282.36;;;;117446;1191;25322;-56
2022/05/28 00:48:46;;;;;;;;;9.33;9.33;;;27.66;97269.27;;;;117351;1189;25601;-59
2022/05/28 00:51:27;;;;;;;;;9.75;9.00;;;27.68;97267.30;;;;117363;1191;25170;-56
2022/05/28 00:54:05;;;;;;;;;13.00;10.75;;;27.70;97257.38;;;;117365;1191;25705;-52
2022/05/28 00:56:41;;;;;;;;;9.75;9.75;;;27.71;97258.38;;;;117357;1190;26921;-51
2022/05/28 00:59:13;;;;;;;;;9.50;9.00;;;27.71;97255.38;;;;117396;1191;25140;-51
2022/05/28 01:01:44;;;;;;;;;10.50;9.75;;;27.71;97253.79;;;;117428;1189;25150;-53
2022/05/28 01:04:50;;;;;;;;;10.33;8.33;;;27.70;97236.91;;;;117387;1191;25211;-49
2022/05/28 01:07:29;;;;;;;;;11.75;9.25;;;27.73;97245.89;;;;117455;1189;26462;-54
2022/05/28 01:10:36;;;;;;;;;9.00;8.00;;;27.73;97254.02;;;;117410;1190;26272;-55
2022/05/28 01:13:19;;;;;;;;;9.75;8.50;;;27.88;97263.33;;;;117434;1190;25233;-55
2022/05/28 01:16:22;;;;;;;;;9.50;8.00;;;27.89;97255.80;;;;117407;1189;25067;-56
2022/05/28 01:19:01;;;;;;;;;9.00;8.00;;;27.87;97264.77;;;;117399;1191;25948;-55
2022/05/28 01:22:05;;;;;;;;;8.67;8.67;;;27.83;97276.41;;;;117395;1191;24964;-52
2022/05/28 01:25:10;;;;;;;;;8.75;7.50;;;27.94;97277.50;;;;117360;1189;25628;-53
2022/05/28 01:27:48;;;;;;;;;9.00;9.00;;;27.98;97278.45;;;;117398;1189;25044;-52
2022/05/28 01:30:20;;;;;;;;;13.67;11.00;;;27.93;97273.74;;;;117326;1191;25172;-55
2022/05/28 01:32:54;;;;;;;;;9.00;9.00;;;27.89;97264.92;;;;117359;1191;25002;-56
2022/05/28 01:35:29;;;;;;;;;10.25;8.00;;;27.87;97264.48;;;;117421;1191;24946;-58
2022/05/28 01:38:06;;;;;;;;;10.00;7.33;;;27.87;97269.86;;;;117368;1190;24790;-53
2022/05/28 01:40:42;;;;;;;;;7.75;7.00;;;27.87;97271.27;;;;117368;1190;25154;-54
2022/05/28 01:43:17;;;;;;;;;9.00;9.00;;;27.86;97279.47;;;;117395;1190;24725;-49
2022/05/28 01:45:54;;;;;;;;;9.50;8.00;;;27.87;97275.67;;;;117346;1190;25012;-56
2022/05/28 01:48:27;;;;;;;;;8.00;7.25;;;27.86;97281.11;;;;117362;1189;25772;-52
2022/05/28 01:51:03;;;;;;;;;9.00;7.25;;;27.85;97279.70;;;;117355;1190;26081;-56
2022/05/28 01:56:33;;;;;;;;;9.50;9.50;;;27.88;97289.91;;;;117410;1191;25369;-54
2022/05/28 01:59:06;;;;;;;;;9.50;8.75;;;27.86;97281.24;;;;117375;1190;25597;-52
2022/05/28 02:01:38;;;;;;;;;9.50;9.50;;;27.85;97270.23;;;;117385;1190;25367;-55
2022/05/28 02:04:18;;;;;;;;;9.33;8.67;;;27.86;97268.55;;;;117361;1190;25064;-55
2022/05/28 02:06:51;;;;;;;;;6.00;4.75;;;27.85;97278.09;;;;117392;1191;24696;-57
2022/05/28 02:09:38;;;;;;;;;8.50;7.75;;;27.86;97299.55;;;;117374;1189;25655;-52
2022/05/28 02:12:34;;;;;;;;;9.25;7.75;;;27.89;97284.33;;;;117390;1190;24936;-56
2022/05/28 02:15:26;;;;;;;;;9.75;7.75;;;27.89;97272.54;;;;117407;1189;25177;-59
2022/05/28 02:18:34;;;;;;;;;8.33;8.33;;;27.91;97263.10;;;;117447;1190;24981;-55
2022/05/28 02:21:42;;;;;;;;;8.67;8.00;;;27.99;97259.97;;;;117386;1190;25035;-57
2022/05/28 02:24:15;;;;;;;;;8.25;8.25;;;27.99;97265.77;;;;117382;1190;25444;-57
2022/05/28 02:26:59;;;;;;;;;10.75;9.50;;;27.93;97274.83;;;;117390;1190;25272;-58
2022/05/28 02:29:32;;;;;;;;;9.00;8.25;;;27.92;97272.41;;;;117417;1190;25369;-54
2022/05/28 02:32:19;;;;;;;;;11.00;9.50;;;27.93;97280.81;;;;117359;1190;25163;-54
2022/05/28 02:34:54;;;;;;;;;9.00;8.00;;;27.94;97283.34;;;;117347;1189;24862;-52
2022/05/28 02:37:27;;;;;;;;;10.00;7.00;;;27.90;97284.45;;;;117421;1191;25656;-57
2022/05/28 02:40:08;;;;;;;;;10.00;8.67;;;27.91;97274.95;;;;117416;1189;25196;-56
2022/05/28 02:42:43;;;;;;;;;3.67;2.33;;;27.92;97262.69;;;;117374;1190;24884;-55
2022/05/28 02:45:19;;;;;;;;;7.75;7.75;;;27.91;97257.92;;;;117381;1190;25218;-56
2022/05/28 02:47:56;;;;;;;;;8.67;8.00;;;27.91;97266.31;;;;117365;1190;26653;-52
2022/05/28 02:50:32;;;;;;;;;7.00;7.00;;;27.92;97265.88;;;;117374;1190;25145;-56
2022/05/28 02:53:07;;;;;;;;;5.00;5.00;;;27.90;97266.38;;;;117388;1190;25548;-57
2022/05/28 02:55:42;;;;;;;;;7.75;7.75;;;27.89;97265.38;;;;117383;1191;25181;-52
2022/05/28 02:58:16;;;;;;;;;7.00;7.00;;;27.89;97258.61;;;;117388;1189;25548;-56
2022/05/28 03:00:51;;;;;;;;;7.75;7.75;;;27.90;97256.60;;;;117440;1191;25187;-53
2022/05/28 03:03:26;;;;;;;;;9.00;7.75;;;27.91;97258.02;;;;117328;1191;25544;-56
2022/05/28 03:05:59;;;;;;;;;7.50;7.50;;;27.91;97256.85;;;;117367;1191;25874;-57
2022/05/28 03:08:33;;;;;;;;;8.00;7.50;;;27.90;97250.21;;;;117400;1190;26035;-58
2022/05/28 03:11:05;;;;;;;;;7.00;7.00;;;27.92;97255.79;;;;117384;1191;25253;-52
2022/05/28 03:13:39;;;;;;;;;6.25;6.25;;;27.91;97257.45;;;;117353;1191;25620;-59
2022/05/28 03:16:12;;;;;;;;;6.25;6.25;;;27.90;97261.76;;;;117321;1190;25461;-57
2022/05/28 03:18:45;;;;;;;;;8.00;8.00;;;27.89;97261.43;;;;117317;1190;25278;-53
2022/05/28 03:21:21;;;;;;;;;10.00;9.00;;;27.90;97266.55;;;;117345;1189;25207;-55
2022/05/28 03:23:53;;;;;;;;;8.00;8.00;;;27.89;97273.09;;;;117383;1189;25746;-59
2022/05/28 03:26:31;;;;;;;;;6.33;6.33;;;27.90;97283.16;;;;117333;1191;25828;-56
2022/05/28 03:29:02;;;;;;;;;8.25;8.25;;;27.89;97281.20;;;;117374;1190;25623;-56
2022/05/28 03:31:34;;;;;;;;;7.67;5.67;;;27.89;97287.16;;;;117349;1191;25617;-53
2022/05/28 03:34:09;;;;;;;;;8.00;7.67;;;27.89;97296.96;;;;117371;1191;25036;-58
2022/05/28 03:36:41;;;;;;;;;6.00;5.00;;;27.90;97294.91;;;;117350;1189;25094;-55
2022/05/28 03:39:16;;;;;;;;;6.75;6.75;;;27.89;97301.64;;;;117350;1191;24862;-53
2022/05/28 03:41:49;;;;;;;;;6.50;6.50;;;27.88;97312.63;;;;117341;1189;25000;-58
2022/05/28 03:44:21;;;;;;;;;7.25;7.25;;;27.88;97321.98;;;;117418;1191;25569;-53
2022/05/28 03:46:51;;;;;;;;;7.25;5.00;;;27.89;97321.20;;;;117332;1191;24863;-57
2022/05/28 03:49:36;;;;;;;;;7.75;7.00;;;27.88;97327.40;;;;117334;1190;25923;-54
2022/05/28 03:52:13;;;;;;;;;8.25;7.50;;;27.91;97332.67;;;;117321;1190;25740;-53
2022/05/28 03:54:43;;;;;;;;;7.00;6.00;;;27.91;97331.98;;;;117325;1190;24824;-54
2022/05/28 03:57:35;;;;;;;;;8.00;8.00;;;27.89;97326.92;;;;117383;1190;24958;-53
2022/05/28 04:00:09;;;;;;;;;7.25;7.25;;;27.91;97326.52;;;;117345;1189;25148;-54
2022/05/28 04:02:38;;;;;;;;;7.25;7.25;;;27.91;97333.84;;;;117982;1182;25002;-62
2022/05/28 04:05:11;;;;;;;;;6.50;5.75;;;28.04;97338.00;;;;117406;1190;25875;-59
2022/05/28 04:07:43;;;;;;;;;8.25;6.50;;;27.99;97338.42;;;;117373;1190;25685;-56
2022/05/28 04:10:14;;;;;;;;;8.75;8.25;;;27.96;97340.13;;;;117427;1189;25111;-62
2022/05/28 04:12:48;;;;;;;;;7.33;7.33;;;27.94;97347.77;;;;117422;1190;25234;-60
2022/05/28 04:15:22;;;;;;;;;9.75;8.25;;;27.94;97344.50;;;;117453;1189;26047;-58
2022/05/28 04:17:55;;;;;;;;;7.25;5.75;;;27.97;97347.59;;;;117564;1190;25408;-60
2022/05/28 04:20:27;;;;;;;;;7.25;7.25;;;28.00;97346.48;;;;117380;1189;24761;-57
2022/05/28 04:23:03;;;;;;;;;7.33;6.00;;;27.98;97344.10;;;;117387;1190;26154;-58
2022/05/28 04:25:35;;;;;;;;;7.75;7.25;;;27.95;97343.48;;;;117398;1188;24727;-61
2022/05/28 04:28:10;;;;;;;;;10.50;9.25;;;27.93;97350.68;;;;117371;1190;25208;-56
2022/05/28 04:30:42;;;;;;;;;6.25;6.25;;;27.92;97348.98;;;;117429;1190;25660;-58
2022/05/28 04:33:18;;;;;;;;;6.00;6.00;;;27.94;97345.14;;;;117382;1190;25621;-59
2022/05/28 04:35:45;;;;;;;;;7.00;6.75;;;27.97;97339.96;;;;117381;1190;25713;-58
2022/05/28 04:38:17;;;;;;;;;7.33;6.00;;;27.94;97329.77;;;;117373;1190;25372;-63
2022/05/28 04:40:53;;;;;;;;;8.67;8.67;;;27.94;97323.34;;;;117431;1190;25153;-60
2022/05/28 04:43:25;;;;;;;;;6.00;6.00;;;27.95;97321.85;;;;117404;1190;25494;-62
2022/05/28 04:45:59;;;;;;;;;8.00;6.00;;;27.96;97320.00;;;;117414;1190;25839;-58
2022/05/28 04:48:29;;;;;;;;;8.00;7.00;;;27.96;97308.55;;;;117401;1190;25199;-62
2022/05/28 04:51:05;;;;;;;;;7.00;6.67;;;27.96;97310.99;;;;117477;1190;24932;-56
2022/05/28 04:53:33;;;;;;;;;5.67;5.67;;;27.94;97315.44;;;;117537;1188;25523;-58
2022/05/28 04:56:06;;;;;;;;;6.00;6.00;;;27.94;97307.47;;;;117550;1190;26366;-59
2022/05/28 04:58:42;;;;;;;;;5.50;5.50;;;27.97;97307.02;;;;117464;1190;25159;-60
2022/05/28 05:01:16;;;;;;;;;8.00;5.75;;;27.99;97299.70;;;;117558;1189;25397;-60
2022/05/28 05:03:52;;;;;;;;;7.75;7.50;;;28.04;97302.67;;;;117494;1189;25445;-58
2022/05/28 05:06:23;;;;;;;;;6.25;6.25;;;28.06;97298.29;;;;117381;1190;25324;-64
2022/05/28 05:08:55;;;;;;;;;11.00;7.33;;;28.03;97295.60;;;;117534;1190;24920;-59
2022/05/28 05:11:28;;;;;;;;;7.00;7.00;;;28.03;97295.34;;;;117486;1190;25762;-58
2022/05/28 05:13:57;;;;;;;;;4.00;4.00;;;28.01;97300.95;;;;117449;1190;25168;-62
2022/05/28 05:16:27;;;;;;;;;6.25;6.00;;;27.99;97301.38;;;;117394;1190;25016;-60
2022/05/28 05:18:56;;;;;;;;;6.25;6.00;;;27.96;97303.85;;;;117360;1190;26328;-62
2022/05/28 05:21:33;;;;;;;;;5.25;4.50;;;27.97;97309.61;;;;117436;1190;26231;-61
2022/05/28 05:24:05;;;;;;;;;5.75;5.75;;;27.98;97308.45;;;;117391;1190;25740;-61
2022/05/28 05:26:33;;;;;;;;;5.00;5.00;;;27.95;97302.29;;;;117405;1189;24726;-62
2022/05/28 05:29:03;;;;;;;;;4.00;3.33;;;27.93;97301.23;;;;117414;1187;25883;-58
2022/05/28 05:31:34;;;;;;;;;6.67;6.00;;;27.91;97301.39;;;;117601;1190;25085;-62
2022/05/28 05:34:07;;;;;;;;;10.67;8.00;;;27.98;97303.64;;;;117435;1190;24810;-57
2022/05/28 05:36:36;;;;;;;;;4.25;4.25;;;27.96;97306.57;;;;117484;1189;25218;-57
2022/05/28 05:39:04;;;;;;;;;14.00;8.75;;;27.96;97306.73;;;;117480;1190;26031;-63
2022/05/28 05:41:41;;;;;;;;;10.33;7.67;;;27.94;97307.80;;;;117405;1188;25324;-58
2022/05/28 05:44:12;;;;;;;;;12.00;8.75;;;27.95;97304.80;;;;117460;1190;25761;-58
2022/05/28 05:46:44;;;;;;;;;10.75;8.75;;;27.97;97306.71;;;;117393;1190;25582;-63
2022/05/28 05:49:17;;;;;;;;;17.67;12.00;;;27.97;97305.37;;;;117395;1190;25172;-62
2022/05/28 05:51:52;;;;;;;;;16.75;10.00;;;27.96;97310.30;;;;117461;1190;24846;-65
2022/05/28 05:54:25;;;;;;;;;22.50;11.50;;;27.99;97311.25;;;;117403;1189;26415;-67
2022/05/28 05:57:01;;;;;;;;;8.75;6.25;;;28.01;97311.42;;;;117397;1191;24871;-68
2022/05/28 05:59:32;;;;;;;;;20.75;16.25;;;27.99;97312.02;;;;117405;1189;25949;-63
2022/05/28 06:02:03;;;;;;;;;19.25;14.25;;;27.95;97318.13;;;;117411;1191;25549;-61
2022/05/28 06:04:34;;;;;;;;;20.75;12.25;;;27.93;97318.09;;;;117413;1190;25111;-69
2022/05/28 06:07:06;;;;;;;;;17.00;14.75;;;27.90;97317.49;;;;117383;1190;25432;-68
2022/05/28 06:09:35;;;;;;;;;21.00;10.25;;;27.89;97316.09;;;;117511;1191;25731;-63
2022/05/28 06:12:07;;;;;;;;;17.50;9.75;;;27.89;97310.20;;;;117420;1189;25742;-69
2022/05/28 06:14:38;;;;;;;;;17.00;10.67;;;27.87;97309.88;;;;117426;1190;25499;-64
2022/05/28 06:17:10;;;;;;;;;16.75;8.75;;;27.84;97308.10;;;;117414;1190;25790;-66
2022/05/28 06:19:40;;;;;;;;;13.67;13.33;;;27.83;97308.52;;;;117485;1189;25409;-64
2022/05/28 06:22:10;;;;;;;;;14.50;8.75;;;27.86;97310.00;;;;117456;1190;26831;-63
2022/05/28 06:24:40;;;;;;;;;16.67;9.67;;;27.88;97310.52;;;;117419;1190;24698;-67
2022/05/28 06:27:14;;;;;;;;;17.33;8.67;;;27.86;97314.98;;;;117516;1190;25456;-63
2022/05/28 06:29:46;;;;;;;;;12.00;9.00;;;27.86;97316.48;;;;117550;1190;25347;-69
2022/05/28 06:32:18;;;;;;;;;13.75;9.00;;;27.82;97317.32;;;;117450;1189;26306;-66
2022/05/28 06:34:49;;;;;;;;;9.50;8.25;;;27.81;97318.45;;;;117370;1190;24685;-67
2022/05/28 06:37:18;;;;;;;;;13.00;8.67;;;27.80;97320.38;;;;117409;1190;25468;-67
2022/05/28 06:39:48;;;;;;;;;7.25;7.25;;;27.78;97314.73;;;;117393;1187;27069;-74
2022/05/28 06:42:24;;;;;;;;;10.25;7.50;;;27.78;97317.07;;;;117377;1190;26032;-63
2022/05/28 06:44:55;;;;;;;;;11.00;9.00;;;27.77;97316.59;;;;117390;1190;25006;-62
2022/05/28 06:47:25;;;;;;;;;11.75;7.75;;;27.75;97315.48;;;;117372;1189;25313;-58
2022/05/28 06:52:45;;;;;;;;;11.00;6.25;;;27.73;97314.95;;;;117406;1188;25295;-65
2022/05/28 06:55:16;;;;;;;;;10.25;6.75;;;27.73;97315.64;;;;117404;1190;26253;-61
2022/05/28 06:57:48;;;;;;;;;8.00;8.00;;;27.72;97309.45;;;;117515;1190;24902;-61
2022/05/28 07:00:22;;;;;;;;;12.25;7.25;;;27.80;97304.98;;;;117444;1189;25138;-62
2022/05/28 07:02:51;;;;;;;;;8.50;8.50;;;27.84;97299.99;;;;117443;1190;24863;-62
2022/05/28 07:05:23;;;;;;;;;6.00;5.75;;;27.84;97303.20;;;;117547;1190;25226;-59
2022/05/28 07:07:56;;;;;;;;;8.50;6.50;;;27.87;97302.84;;;;117409;1189;25456;-58
2022/05/28 07:10:24;;;;;;;;;6.67;6.00;;;27.85;97303.74;;;;117404;1190;25610;-60
2022/05/28 07:12:54;;;;;;;;;8.25;7.25;;;27.80;97308.08;;;;117393;1190;25409;-56
2022/05/28 07:15:27;;;;;;;;;5.00;5.00;;;27.79;97311.16;;;;117407;1190;24956;-70
2022/05/28 07:17:55;;;;;;;;;7.75;6.75;;;27.77;97316.75;;;;117448;1189;25321;-63
2022/05/28 07:20:26;;;;;;;;;6.75;5.25;;;27.77;97322.73;;;;117431;1189;24768;-57
2022/05/28 07:22:58;;;;;;;;;7.00;5.25;;;27.77;97321.16;;;;117357;1190;26376;-64
2022/05/28 07:25:31;;;;;;;;;5.25;4.75;;;27.76;97327.68;;;;117365;1190;25034;-58
2022/05/28 07:28:24;;;;;;;;;5.75;4.25;;;27.77;97328.98;;;;117393;1190;25454;-58
2022/05/28 07:31:03;;;;;;;;;10.75;6.25;;;27.84;97332.34;;;;117425;1189;24945;-60
2022/05/28 07:33:43;;;;;;;;;6.00;5.00;;;27.86;97337.27;;;;117371;1190;25305;-58
2022/05/28 07:36:22;;;;;;;;;6.00;3.75;;;27.86;97338.27;;;;117385;1189;26381;-61
2022/05/28 07:38:53;;;;;;;;;4.75;4.75;;;27.87;97342.20;;;;117359;1190;24997;-61
2022/05/28 07:41:25;;;;;;;;;5.00;4.50;;;27.86;97343.73;;;;117389;1191;24875;-61
2022/05/28 07:43:56;;;;;;;;;5.75;5.00;;;27.82;97341.48;;;;117533;1190;25662;-58
2022/05/28 07:46:34;;;;;;;;;6.00;4.00;;;27.90;97339.20;;;;117417;1190;24802;-64
2022/05/28 07:49:09;;;;;;;;;4.25;3.75;;;27.88;97338.80;;;;117434;1190;25429;-56
2022/05/28 07:51:42;;;;;;;;;10.00;8.33;;;27.89;97338.66;;;;117378;1190;25507;-57
2022/05/28 07:54:16;;;;;;;;;6.25;5.00;;;27.85;97341.11;;;;117488;1189;25465;-52
2022/05/28 07:56:55;;;;;;;;;6.25;6.25;;;27.84;97338.73;;;;117518;1190;25170;-57
2022/05/28 07:59:25;;;;;;;;;8.00;5.00;;;27.94;97335.73;;;;117500;1189;25097;-56
2022/05/28 08:01:58;;;;;;;;;6.25;4.25;;;27.87;97342.89;;;;117409;1190;25725;-57
2022/05/28 08:04:54;;;;;;;;;5.33;4.00;;;27.82;97350.73;;;;117405;1189;24878;-61
2022/05/28 08:07:47;;;;;;;;;4.25;2.50;;;27.77;97358.27;;;;117432;1189;25947;-55
2022/05/28 08:10:40;;;;;;;;;5.50;4.25;;;27.58;97363.71;;;;117472;1189;25178;-55
2022/05/28 08:13:16;;;;;;;;;4.25;4.25;;;27.43;97370.11;;;;117423;1189;25012;-55
2022/05/28 08:15:51;;;;;;;;;4.67;3.00;;;27.30;97379.29;;;;117497;1190;25549;-52
2022/05/28 08:18:24;;;;;;;;;3.50;3.50;;;27.23;97386.19;;;;117441;1189;25614;-54
2022/05/28 08:24:02;;;;;;;;;3.00;3.00;;;27.17;97390.50;;;;117393;1190;25686;-51
2022/05/28 08:26:34;;;;;;;;;2.25;2.25;;;27.11;97390.20;;;;117390;1190;26069;-53
2022/05/28 08:29:07;;;;;;;;;3.75;3.75;;;27.03;97387.02;;;;117457;1189;25896;-52
2022/05/28 08:31:37;;;;;;;;;2.50;2.50;;;27.00;97389.09;;;;117375;1190;25199;-52
2022/05/28 08:34:10;;;;;;;;;3.00;2.00;;;26.97;97384.16;;;;117409;1190;25097;-51
2022/05/28 08:36:39;;;;;;;;;7.75;3.00;;;26.88;97390.06;;;;117444;1190;25588;-58
2022/05/28 08:39:38;;;;;;;;;3.75;2.25;;;26.85;97395.83;;;;118045;1183;25335;-59
2022/05/28 08:42:09;;;;;;;;;3.00;2.00;;;26.95;97402.95;;;;117401;1191;27031;-54
2022/05/28 08:44:44;;;;;;;;;2.75;2.00;;;26.92;97400.20;;;;117404;1191;26020;-54
2022/05/28 08:47:28;;;;;;;;;2.25;2.25;;;26.90;97398.20;;;;117387;1189;25510;-55
2022/05/28 08:50:00;;;;;;;;;2.67;2.00;;;26.89;97392.55;;;;117410;1191;25559;-53
2022/05/28 08:52:32;;;;;;;;;3.00;3.00;;;26.89;97384.42;;;;117503;1190;26211;-54
2022/05/28 08:55:06;;;;;;;;;5.50;4.25;;;26.90;97385.23;;;;117382;1190;26320;-54
2022/05/28 08:57:44;;;;;;;;;3.00;3.00;;;26.91;97393.80;;;;117389;1189;25362;-54
2022/05/28 09:00:21;;;;;;;;;6.75;4.25;;;26.91;97394.70;;;;117412;1189;25247;-51
2022/05/28 09:03:03;;;;;;;;;3.75;3.75;;;26.92;97402.78;;;;117389;1190;24952;-56
2022/05/28 09:05:54;;;;;;;;;6.00;3.67;;;26.91;97396.23;;;;117373;1190;25370;-58
2022/05/28 09:08:50;;;;;;;;;4.25;3.50;;;26.90;97387.42;;;;117446;1191;24753;-53
2022/05/28 09:11:50;;;;;;;;;4.00;2.00;;;26.91;97380.31;;;;117355;1191;25515;-55
2022/05/28 09:14:27;;;;;;;;;2.33;2.33;;;26.89;97397.77;;;;117378;1191;25516;-54
2022/05/28 09:16:59;;;;;;;;;3.50;2.25;;;26.84;97398.13;;;;117464;1191;26334;-56
2022/05/28 09:19:38;;;;;;;;;3.00;2.50;;;26.82;97387.90;;;;117388;1190;25032;-54
2022/05/28 09:22:09;;;;;;;;;2.00;1.50;;;26.78;97399.20;;;;117441;1189;25853;-61
2022/05/28 09:24:42;;;;;;;;;3.00;3.00;;;26.62;97396.31;;;;117454;1190;25161;-58
2022/05/28 09:27:34;;;;;;;;;5.00;4.50;;;26.63;97389.25;;;;117370;1189;24868;-60
2022/05/28 09:30:15;;;;;;;;;4.75;3.00;;;26.71;97396.41;;;;117487;1190;25288;-55
2022/05/28 09:33:22;;;;;;;;;3.00;3.00;;;26.77;97397.67;;;;117378;1191;26079;-53
2022/05/28 09:36:07;;;;;;;;;6.50;5.00;;;26.81;97399.20;;;;117375;1191;25727;-54
2022/05/28 09:38:58;;;;;;;;;7.25;5.75;;;26.82;97404.61;;;;117331;1189;24744;-53
2022/05/28 09:41:47;;;;;;;;;9.00;6.67;;;26.85;97405.13;;;;117489;1190;24868;-54
2022/05/28 09:44:23;;;;;;;;;5.00;5.00;;;26.92;97403.68;;;;117387;1190;25781;-53
2022/05/28 09:47:13;;;;;;;;;3.00;3.00;;;26.96;97402.98;;;;117369;1191;24945;-55
2022/05/28 09:49:50;;;;;;;;;5.00;4.75;;;27.00;97405.58;;;;117394;1191;25306;-56
2022/05/28 09:52:25;;;;;;;;;7.50;7.50;;;27.03;97399.16;;;;117386;1189;24991;-57
2022/05/28 09:55:14;;;;;;;;;4.00;4.00;;;27.07;97390.09;;;;117403;1191;25775;-55
2022/05/28 09:58:04;;;;;;;;;6.75;6.25;;;27.18;97390.23;;;;117447;1190;24954;-57
2022/05/28 10:00:36;;;;;;;;;8.00;6.25;;;27.26;97396.39;;;;117337;1191;25582;-58
2022/05/28 10:06:00;;;;;;;;;7.50;7.50;;;27.36;97398.04;;;;117334;1189;25729;-56
2022/05/28 10:08:31;;;;;;;;;9.75;6.75;;;27.37;97397.77;;;;117440;1189;25494;-61
2022/05/28 10:11:03;;;;;;;;;7.50;7.50;;;27.40;97403.35;;;;117428;1190;25603;-56
2022/05/28 10:13:52;;;;;;;;;9.00;8.33;;;27.45;97398.42;;;;117481;1191;26110;-58
2022/05/28 10:16:28;;;;;;;;;8.25;8.25;;;27.51;97385.95;;;;117434;1189;25116;-60
2022/05/28 10:19:24;;;;;;;;;10.75;8.25;;;27.60;97386.60;;;;117352;1189;25733;-59
2022/05/28 10:21:56;;;;;;;;;12.00;9.67;;;27.65;97385.73;;;;117403;1191;24859;-58
2022/05/28 10:24:26;;;;;;;;;7.75;7.50;;;27.69;97379.92;;;;117424;1189;24944;-59
2022/05/28 10:27:00;;;;;;;;;9.50;9.50;;;27.69;97376.36;;;;117495;1189;25174;-60
2022/05/28 10:29:45;;;;;;;;;10.50;10.50;;;27.71;97373.20;;;;117372;1191;25409;-62
2022/05/28 10:32:40;;;;;;;;;11.25;11.25;;;27.73;97371.40;;;;117436;1191;25343;-56
2022/05/28 10:35:29;;;;;;;;;13.00;10.50;;;27.83;97369.61;;;;117390;1190;25256;-57
2022/05/28 10:38:09;;;;;;;;;10.00;8.00;;;27.88;97372.27;;;;117349;1190;25713;-58
2022/05/28 10:40:49;;;;;;;;;8.67;8.67;;;27.86;97371.89;;;;117447;1189;25771;-60
2022/05/28 10:43:28;;;;;;;;;10.75;10.75;;;27.88;97367.93;;;;117314;1191;25336;-63
2022/05/28 10:46:06;;;;;;;;;12.67;9.67;;;27.89;97365.62;;;;117437;1191;24939;-62
2022/05/28 10:49:00;;;;;;;;;11.00;9.33;;;27.87;97364.61;;;;117448;1191;25546;-59
2022/05/28 10:52:08;;;;;;;;;10.25;9.50;;;27.95;97359.70;;;;117433;1190;25220;-57
2022/05/28 10:54:49;;;;;;;;;13.67;12.67;;;28.00;97358.91;;;;117383;1191;25036;-56
2022/05/28 10:57:30;;;;;;;;;15.00;12.00;;;28.00;97361.02;;;;117421;1191;24821;-59
2022/05/28 11:00:12;;;;;;;;;11.25;11.25;;;28.01;97364.34;;;;117433;1191;26307;-56
2022/05/28 11:03:01;;;;;;;;;13.50;11.75;;;28.03;97362.94;;;;117353;1191;25958;-59
2022/05/28 11:05:37;;;;;;;;;12.25;12.25;;;28.02;97371.83;;;;117371;1191;25340;-57
2022/05/28 11:08:19;;;;;;;;;14.67;14.67;;;28.02;97376.78;;;;117364;1190;25623;-55
2022/05/28 11:11:17;;;;;;;;;12.00;11.33;;;28.03;97382.36;;;;117408;1191;25684;-59
2022/05/28 11:14:06;;;;;;;;;14.50;13.50;;;28.08;97377.73;;;;117318;1191;25825;-59
2022/05/28 11:16:47;;;;;;;;;10.75;10.00;;;28.06;97366.60;;;;117376;1189;25613;-60
2022/05/28 11:19:36;;;;;;;;;14.00;12.50;;;28.01;97365.96;;;;117364;1191;25520;-59
2022/05/28 11:22:19;;;;;;;;;15.00;14.50;;;27.98;97368.84;;;;117368;1191;24840;-57
2022/05/28 11:24:52;;;;;;;;;9.75;8.50;;;27.95;97366.79;;;;117384;1191;25725;-56
2022/05/28 11:27:34;;;;;;;;;13.75;10.50;;;27.92;97352.48;;;;117406;1191;25846;-60
2022/05/28 11:30:16;;;;;;;;;12.67;9.33;;;27.89;97348.07;;;;117430;1191;25730;-59
2022/05/28 11:32:50;;;;;;;;;9.75;9.50;;;27.88;97349.08;;;;117340;1191;25341;-58
2022/05/28 11:35:35;;;;;;;;;14.67;13.33;;;27.86;97348.91;;;;117441;1189;24690;-60
2022/05/28 11:38:12;;;;;;;;;12.00;10.33;;;27.85;97352.77;;;;117370;1191;25500;-59
2022/05/28 11:41:12;;;;;;;;;11.25;9.25;;;27.82;97351.92;;;;117411;1190;25986;-56
2022/05/28 11:43:45;;;;;;;;;10.00;8.50;;;27.80;97356.90;;;;117389;1191;25803;-58
2022/05/28 11:46:48;;;;;;;;;9.75;9.75;;;27.77;97365.52;;;;117377;1190;26081;-59
2022/05/28 11:52:31;;;;;;;;;11.25;11.25;;;27.83;97367.05;;;;117353;1189;26331;-55
2022/05/28 11:55:01;;;;;;;;;12.50;12.50;;;27.78;97377.32;;;;117364;1189;25234;-56
2022/05/28 11:57:37;;;;;;;;;17.50;14.25;;;27.76;97389.28;;;;117422;1191;24793;-57
2022/05/28 12:00:10;;;;;;;;;9.50;9.00;;;27.74;97409.09;;;;117374;1191;25528;-57
2022/05/28 12:02:52;;;;;;;;;14.33;11.33;;;27.74;97403.48;;;;117362;1191;25617;-56
2022/05/28 12:05:25;;;;;;;;;14.00;11.00;;;27.74;97398.13;;;;117338;1190;25105;-56
2022/05/28 12:08:02;;;;;;;;;14.67;11.33;;;27.73;97394.61;;;;117366;1191;24894;-56
2022/05/28 12:10:50;;;;;;;;;13.67;11.67;;;27.71;97395.20;;;;117552;1190;24742;-57
2022/05/28 12:13:26;;;;;;;;;14.00;11.50;;;27.77;97396.33;;;;117523;1191;25007;-56
2022/05/28 12:16:26;;;;;;;;;13.50;9.50;;;27.79;97397.61;;;;117345;1189;25854;-55
2022/05/28 12:19:05;;;;;;;;;7.75;7.75;;;27.78;97410.02;;;;117298;1191;26334;-58
2022/05/28 12:21:38;;;;;;;;;10.75;10.50;;;27.78;97414.88;;;;117450;1190;24707;-57
2022/05/28 12:24:29;;;;;;;;;7.67;7.67;;;27.77;97409.11;;;;117354;1190;25247;-58
2022/05/28 12:29:45;;;;;;;;;9.50;9.50;;;27.76;97408.10;;;;117437;1189;25721;-58
2022/05/28 12:32:22;;;;;;;;;7.75;7.75;;;27.74;97408.21;;;;117360;1191;25321;-58
2022/05/28 12:35:08;;;;;;;;;10.00;9.25;;;27.72;97406.77;;;;117486;1190;25435;-59
2022/05/28 12:37:37;;;;;;;;;7.50;7.50;;;27.72;97410.77;;;;117369;1191;24858;-61
2022/05/28 12:40:37;;;;;;;;;11.00;8.67;;;27.69;97411.64;;;;117393;1191;25687;-59
2022/05/28 12:43:25;;;;;;;;;9.00;6.67;;;27.65;97410.48;;;;117406;1191;25460;-58
2022/05/28 12:45:59;;;;;;;;;6.75;6.50;;;27.67;97403.30;;;;117450;1189;26443;-56
2022/05/28 12:48:34;;;;;;;;;7.75;7.00;;;27.70;97401.61;;;;117368;1190;25731;-60
2022/05/28 12:51:24;;;;;;;;;5.00;5.00;;;27.69;97401.08;;;;117381;1190;25379;-61
2022/05/28 12:53:55;;;;;;;;;5.75;5.25;;;27.69;97404.30;;;;117464;1191;24802;-59
2022/05/28 12:56:38;;;;;;;;;5.00;4.00;;;27.69;97404.11;;;;117385;1190;25584;-57
2022/05/28 12:59:32;;;;;;;;;8.25;5.00;;;27.67;97403.54;;;;117445;1191;26454;-57
2022/05/28 13:02:17;;;;;;;;;6.75;5.00;;;27.73;97400.37;;;;117400;1190;25712;-61
2022/05/28 13:05:26;;;;;;;;;5.00;5.00;;;27.74;97403.14;;;;117343;1191;25712;-58
2022/05/28 13:08:02;;;;;;;;;7.25;6.00;;;27.76;97404.23;;;;117433;1191;25837;-59
2022/05/28 13:11:00;;;;;;;;;9.00;9.00;;;27.80;97402.08;;;;117142;1191;25773;-56